Time;durP1;ratioP1;P1;durP2;ratioP2;P2;SDS_P1;SDS_P2;PMS_P1;PMS_P2;Temp;Humidity;BMP_temperature;BMP_pressure;BME280_temperature;BME280_humidity;BME280_pressure;Samples;Min_cycle;Max_cycle;Signal;HPM_P1;HPM_P2
2022/04/29 00:00:38;;;;;;;1.70;1.45;;;;;;;10.27;60.73;99627.13;4070482;29;20235;-65
2022/04/29 00:02:40;;;;;;;1.98;1.83;;;;;;;10.29;60.84;99625.00;4070991;29;20308;-66
2022/04/29 00:04:43;;;;;;;2.17;2.08;;;;;;;10.32;60.95;99621.81;4070509;29;20244;-66
2022/04/29 00:06:44;;;;;;;1.50;1.40;;;;;;;10.30;60.91;99623.94;4070552;29;20216;-67
2022/04/29 00:08:48;;;;;;;1.75;1.65;;;;;;;10.31;60.99;99622.88;4070932;29;20253;-65
2022/04/29 00:10:50;;;;;;;2.15;1.88;;;;;;;10.30;61.24;99626.69;4072851;29;20335;-66
2022/04/29 00:12:52;;;;;;;2.00;1.30;;;;;;;10.31;61.19;99622.88;4067358;29;20371;-66
2022/04/29 00:14:55;;;;;;;1.75;1.65;;;;;;;10.31;61.52;99620.13;4070448;29;20595;-67
2022/04/29 00:16:57;;;;;;;1.73;1.63;;;;;;;10.27;61.72;99621.66;4071766;29;20304;-65
2022/04/29 00:18:58;;;;;;;2.08;1.98;;;;;;;10.23;61.31;99617.69;4069125;29;20700;-67
2022/04/29 00:21:00;;;;;;;1.77;1.67;;;;;;;10.24;62.02;99627.56;4072511;29;20275;-66
2022/04/29 00:23:02;;;;;;;2.40;2.20;;;;;;;10.21;61.97;99620.63;4068100;29;20878;-68
2022/04/29 00:25:04;;;;;;;2.17;2.00;;;;;;;10.21;61.79;99614.34;4069620;29;20606;-68
2022/04/29 00:27:06;;;;;;;2.53;2.33;;;;;;;10.17;61.81;99604.88;4068634;29;20295;-66
2022/04/29 00:29:09;;;;;;;1.58;1.48;;;;;;;10.12;62.65;99612.91;4068810;29;20680;-67
2022/04/29 00:31:10;;;;;;;2.42;2.25;;;;;;;10.02;62.28;99602.41;4072373;29;20780;-67
2022/04/29 00:33:12;;;;;;;2.63;2.42;;;;;;;10.01;62.27;99598.00;4068777;29;20728;-68
2022/04/29 00:35:14;;;;;;;3.33;2.88;;;;;;;9.94;62.16;99602.69;4070949;29;20237;-65
2022/04/29 00:37:16;;;;;;;2.40;2.20;;;;;;;9.93;62.26;99601.00;4068135;29;20216;-67
2022/04/29 00:39:18;;;;;;;3.00;2.17;;;;;;;9.93;62.33;99594.69;4067029;29;20235;-66
2022/04/29 00:41:23;;;;;;;2.90;2.72;;;;;;;9.91;62.23;99603.13;4068580;29;20211;-66
2022/04/29 00:43:25;;;;;;;4.72;2.05;;;;;;;9.91;62.49;99596.81;4084228;29;20294;-69
2022/04/29 00:45:26;;;;;;;2.03;1.90;;;;;;;9.87;62.28;99604.63;4073020;29;20242;-67
2022/04/29 00:47:28;;;;;;;2.22;2.00;;;;;;;9.87;62.89;99601.06;4066090;29;20328;-67
2022/04/29 00:49:30;;;;;;;2.55;2.35;;;;;;;9.77;62.94;99608.88;4070315;29;20208;-67
2022/04/29 00:51:32;;;;;;;2.10;2.00;;;;;;;9.75;62.85;99611.00;4069455;29;20229;-68
2022/04/29 00:53:34;;;;;;;2.45;2.25;;;;;;;9.73;63.08;99602.16;4068005;29;20205;-68
2022/04/29 00:55:36;;;;;;;2.40;2.20;;;;;;;9.76;63.07;99610.75;4068901;29;20719;-67
2022/04/29 00:57:50;;;;;;;2.58;2.38;;;;;;;9.76;63.01;99609.94;4066508;29;20909;-67
2022/04/29 00:59:59;;;;;;;2.40;2.25;;;;;;;9.75;62.75;99605.53;4065564;29;20211;-66
2022/04/29 01:02:03;;;;;;;2.28;2.13;;;;;;;9.76;63.14;99601.75;4064014;29;20208;-67
2022/04/29 01:04:07;;;;;;;2.53;2.33;;;;;;;9.75;63.11;99605.53;4063398;29;20201;-67
2022/04/29 01:06:09;;;;;;;2.30;2.10;;;;;;;9.71;63.03;99604.28;4069040;29;20234;-70
2022/04/29 01:08:11;;;;;;;2.45;2.25;;;;;;;9.71;62.93;99607.00;4069027;29;20299;-68
2022/04/29 01:10:13;;;;;;;2.60;2.33;;;;;;;9.69;63.40;99601.75;4071467;29;20226;-67
2022/04/29 01:12:15;;;;;;;3.15;2.95;;;;;;;9.64;63.67;99598.88;4066090;29;20208;-67
2022/04/29 01:14:17;;;;;;;2.25;2.13;;;;;;;9.56;64.11;99601.00;4065886;29;20216;-67
2022/04/29 01:16:19;;;;;;;3.08;2.78;;;;;;;9.49;63.51;99589.25;4071155;29;20226;-68
2022/04/29 01:18:21;;;;;;;1.92;1.80;;;;;;;9.30;64.33;99590.19;4081271;29;20227;-66
2022/04/29 01:20:25;;;;;;;1.50;1.40;;;;;;;9.31;63.84;99580.91;4068660;29;20239;-67
2022/04/29 01:22:27;;;;;;;2.20;2.08;;;;;;;9.35;63.32;99579.44;4068504;29;20573;-66
2022/04/29 01:24:28;;;;;;;2.08;1.98;;;;;;;9.34;63.57;99585.97;4068909;29;20222;-67
2022/04/29 01:26:30;;;;;;;2.50;2.28;;;;;;;9.32;63.14;99579.88;4071484;29;20218;-67
2022/04/29 01:28:31;;;;;;;1.98;1.88;;;;;;;9.35;63.55;99587.66;4076744;29;20212;-67
2022/04/29 01:30:34;;;;;;;2.75;2.55;;;;;;;9.36;63.05;99590.13;4071772;29;20338;-69
2022/04/29 01:32:36;;;;;;;3.90;3.50;;;;;;;9.22;63.19;99582.22;4072797;29;20684;-68
2022/04/29 01:34:37;;;;;;;2.35;2.15;;;;;;;9.25;63.25;99579.91;4071819;29;20250;-68
2022/04/29 01:36:39;;;;;;;2.55;2.13;;;;;;;9.24;63.49;99580.09;4085145;29;20311;-69
2022/04/29 01:38:41;;;;;;;2.53;2.33;;;;;;;9.27;63.60;99594.16;4071564;29;20265;-66
2022/04/29 01:40:42;;;;;;;2.38;2.17;;;;;;;9.30;63.38;99579.25;4073016;29;21011;-67
2022/04/29 01:42:44;;;;;;;3.33;3.03;;;;;;;9.28;63.38;99575.91;4070874;29;20247;-69
2022/04/29 01:44:46;;;;;;;2.38;2.17;;;;;;;9.30;63.65;99573.78;4072354;29;21630;-68
2022/04/29 01:46:47;;;;;;;2.42;2.22;;;;;;;9.32;63.35;99577.13;4070629;29;20215;-66
2022/04/29 01:48:49;;;;;;;2.03;1.83;;;;;;;9.39;63.29;99572.47;4071247;29;20649;-67
2022/04/29 01:50:51;;;;;;;2.75;1.98;;;;;;;9.37;63.44;99569.13;4072575;29;20311;-67
2022/04/29 01:52:52;;;;;;;2.80;2.58;;;;;;;9.36;63.48;99578.38;4068038;29;20223;-66
2022/04/29 01:54:54;;;;;;;1.85;1.75;;;;;;;9.30;63.91;99580.09;4072534;29;20239;-67
2022/04/29 01:56:55;;;;;;;1.92;1.83;;;;;;;9.31;63.94;99575.47;4087236;28;20219;-68
2022/04/29 01:58:57;;;;;;;2.40;2.20;;;;;;;9.31;63.82;99580.91;4073383;29;20702;-67
2022/04/29 02:00:59;;;;;;;1.80;1.70;;;;;;;9.28;63.79;99570.44;4073226;29;20223;-67
2022/04/29 02:03:00;;;;;;;2.53;2.33;;;;;;;9.26;63.96;99567.91;4075756;29;20211;-66
2022/04/29 02:05:03;;;;;;;2.67;2.47;;;;;;;9.23;63.85;99568.34;4075191;29;20364;-69
2022/04/29 02:07:05;;;;;;;2.17;2.05;;;;;;;9.19;63.78;99566.25;4072194;29;20212;-68
2022/04/29 02:09:07;;;;;;;2.10;1.92;;;;;;;9.17;63.78;99563.75;4070347;29;20208;-68
2022/04/29 02:11:08;;;;;;;3.33;3.03;;;;;;;9.09;64.01;99554.97;4071862;29;20208;-67
2022/04/29 02:13:10;;;;;;;2.65;2.45;;;;;;;9.09;64.65;99554.97;4071902;29;20547;-66
2022/04/29 02:15:12;;;;;;;2.25;2.05;;;;;;;9.11;63.78;99556.44;4059311;29;20239;-67
2022/04/29 02:17:13;;;;;;;2.53;2.33;;;;;;;9.11;64.03;99561.03;4070499;29;20561;-66
2022/04/29 02:19:15;;;;;;;2.15;2.00;;;;;;;9.11;64.40;99558.31;4071580;29;20229;-66
2022/04/29 02:21:17;;;;;;;3.00;2.80;;;;;;;9.10;64.22;99562.09;4071823;29;20212;-67
2022/04/29 02:23:18;;;;;;;1.90;1.60;;;;;;;9.08;64.46;99554.09;4073037;29;20299;-69
2022/04/29 02:25:20;;;;;;;2.80;2.60;;;;;;;9.08;64.37;99559.56;4072575;29;20224;-66
2022/04/29 02:27:22;;;;;;;4.63;2.33;;;;;;;9.05;63.97;99549.09;4071364;29;20299;-68
2022/04/29 02:29:23;;;;;;;2.90;2.70;;;;;;;9.03;64.55;99550.34;4077296;29;20204;-68
2022/04/29 02:31:25;;;;;;;3.47;2.53;;;;;;;8.98;63.97;99552.88;4071244;29;20212;-66
2022/04/29 02:33:27;;;;;;;2.38;2.17;;;;;;;8.99;64.18;99547.22;4073410;29;20212;-66
2022/04/29 02:35:29;;;;;;;2.50;2.30;;;;;;;9.01;63.97;99560.66;4070984;29;21787;-68
2022/04/29 02:37:31;;;;;;;1.73;1.63;;;;;;;9.01;64.42;99558.75;4072365;29;20307;-68
2022/04/29 02:39:33;;;;;;;2.58;2.38;;;;;;;9.00;64.06;99553.50;4071903;29;20224;-68
2022/04/29 02:41:36;;;;;;;1.92;1.83;;;;;;;8.97;64.40;99553.94;4074729;29;20216;-65
2022/04/29 02:43:38;;;;;;;2.20;2.00;;;;;;;8.93;64.63;99556.25;4072190;29;20208;-68
2022/04/29 02:45:41;;;;;;;2.28;2.13;;;;;;;8.91;64.26;99557.53;4071026;29;20831;-67
2022/04/29 02:47:42;;;;;;;2.35;2.25;;;;;;;8.84;64.58;99545.78;4071789;29;21762;-65
2022/04/29 02:49:45;;;;;;;2.65;2.45;;;;;;;8.77;64.63;99550.44;4074476;29;20243;-67
2022/04/29 02:51:46;;;;;;;2.40;2.13;;;;;;;8.72;64.33;99552.94;4068010;29;20292;-67
2022/04/29 02:53:48;;;;;;;2.13;1.92;;;;;;;8.72;64.95;99552.94;4074648;29;20219;-67
2022/04/29 02:55:49;;;;;;;2.70;2.40;;;;;;;8.72;64.80;99552.94;4072693;29;20236;-65
2022/04/29 02:57:51;;;;;;;1.88;1.77;;;;;;;8.70;65.05;99560.53;4071604;29;20211;-67
2022/04/29 02:59:52;;;;;;;2.10;2.00;;;;;;;8.69;64.80;99567.03;4073597;29;20232;-66
2022/04/29 03:01:54;;;;;;;1.77;1.67;;;;;;;8.68;64.74;99562.63;4074107;29;20214;-65
2022/04/29 03:03:56;;;;;;;2.17;2.08;;;;;;;8.65;65.05;99568.50;4075842;29;20208;-65
2022/04/29 03:05:58;;;;;;;1.67;1.42;;;;;;;8.64;65.26;99566.81;4071916;29;20243;-65
2022/04/29 03:07:59;;;;;;;3.05;2.60;;;;;;;8.64;65.27;99564.09;4072520;29;20208;-64
2022/04/29 03:10:01;;;;;;;2.17;1.98;;;;;;;8.62;65.19;99563.47;4071809;29;20200;-68
2022/04/29 03:12:03;;;;;;;2.58;2.45;;;;;;;8.59;65.64;99558.41;4075920;29;20694;-64
2022/04/29 03:14:05;;;;;;;2.08;1.88;;;;;;;8.54;65.04;99550.06;4075620;29;20740;-67
2022/04/29 03:16:06;;;;;;;1.85;1.75;;;;;;;8.52;65.48;99552.13;4074495;29;20595;-64
2022/04/29 03:18:23;;;;;;;2.50;2.30;;;;;;;8.46;65.58;99552.97;4072599;29;20251;-67
2022/04/29 03:20:25;;;;;;;2.95;2.20;;;;;;;8.38;65.25;99555.94;4072876;29;20204;-66
2022/04/29 03:22:27;;;;;;;2.60;2.40;;;;;;;8.35;65.46;99551.72;4073508;29;20240;-66
2022/04/29 03:24:31;;;;;;;2.58;2.40;;;;;;;8.32;65.87;99551.31;4072364;29;20620;-66
2022/04/29 03:26:35;;;;;;;2.40;2.20;;;;;;;8.26;65.83;99553.00;4073366;29;20236;-65
2022/04/29 03:28:36;;;;;;;2.17;2.05;;;;;;;8.19;66.19;99552.16;4071395;29;20418;-66
2022/04/29 03:30:38;;;;;;;2.20;2.00;;;;;;;8.14;65.75;99554.66;4076277;29;20917;-66
2022/04/29 03:32:39;;;;;;;2.80;2.40;;;;;;;8.10;66.26;99536.19;4072362;29;20295;-66
2022/04/29 03:34:41;;;;;;;2.20;2.10;;;;;;;8.09;66.65;99540.78;4072059;29;20228;-65
2022/04/29 03:36:42;;;;;;;3.33;3.13;;;;;;;8.11;66.27;99537.88;4073776;29;20728;-67
2022/04/29 03:38:44;;;;;;;2.45;2.25;;;;;;;8.09;65.96;99537.25;4072944;29;20240;-66
2022/04/29 03:40:45;;;;;;;2.78;2.58;;;;;;;8.08;66.23;99536.41;4071577;29;20228;-66
2022/04/29 03:42:54;;;;;;;2.63;2.42;;;;;;;8.03;65.97;99538.09;4071315;29;20209;-65
2022/04/29 03:44:56;;;;;;;3.08;2.67;;;;;;;7.94;66.39;99536.59;4070457;29;20604;-65
2022/04/29 03:46:57;;;;;;;2.65;2.45;;;;;;;7.90;66.94;99532.63;4074225;29;20699;-67
2022/04/29 03:51:20;;;;;;;2.60;2.40;;;;;;;7.96;66.68;99524.44;4068888;29;20221;-65
2022/04/29 03:53:22;;;;;;;2.95;2.75;;;;;;;7.98;65.93;99527.81;4072480;29;20217;-66
2022/04/29 03:55:26;;;;;;;2.78;2.58;;;;;;;7.97;66.23;99526.13;4087896;28;20235;-66
2022/04/29 03:57:27;;;;;;;2.75;2.55;;;;;;;7.96;66.07;99534.50;4073956;29;20299;-67
2022/04/29 03:59:29;;;;;;;2.25;2.15;;;;;;;7.98;66.09;99536.00;4075561;29;20220;-64
2022/04/29 04:01:31;;;;;;;1.83;1.73;;;;;;;8.00;66.22;99530.31;4071326;29;20209;-68
2022/04/29 04:03:33;;;;;;;3.47;3.25;;;;;;;8.02;66.38;99533.69;4072350;29;20327;-66
2022/04/29 04:05:34;;;;;;;3.03;2.83;;;;;;;8.00;66.07;99531.16;4071365;29;20283;-66
2022/04/29 04:07:36;;;;;;;3.30;3.03;;;;;;;7.99;66.19;99528.63;4071199;29;20239;-65
2022/04/29 04:09:39;;;;;;;3.15;2.95;;;;;;;7.93;66.20;99541.22;4086759;29;20211;-67
2022/04/29 04:11:41;;;;;;;3.22;2.92;;;;;;;7.90;65.90;99547.06;4071842;29;20339;-66
2022/04/29 04:13:43;;;;;;;7.00;2.60;;;;;;;7.87;66.32;99552.94;4069038;29;20227;-66
2022/04/29 04:15:44;;;;;;;3.45;2.80;;;;;;;7.86;65.89;99553.13;4073634;29;20319;-66
2022/04/29 04:17:47;;;;;;;3.58;3.28;;;;;;;7.87;66.57;99552.09;4072413;29;20208;-65
2022/04/29 04:19:48;;;;;;;2.85;2.65;;;;;;;7.85;66.63;99559.66;4072742;29;20227;-66
2022/04/29 04:21:50;;;;;;;5.03;2.83;;;;;;;7.80;66.04;99562.13;4073602;29;20307;-67
2022/04/29 04:23:53;;;;;;;2.60;2.40;;;;;;;7.77;66.16;99551.66;4075111;29;20230;-68
2022/04/29 04:25:56;;;;;;;2.65;2.45;;;;;;;7.72;66.78;99562.34;4071674;29;20251;-66
2022/04/29 04:27:58;;;;;;;2.75;2.55;;;;;;;7.66;66.56;99565.88;4072686;29;20293;-66
2022/04/29 04:30:00;;;;;;;2.03;1.88;;;;;;;7.62;66.60;99559.19;4073093;29;20263;-67
2022/04/29 04:32:02;;;;;;;3.53;3.00;;;;;;;7.62;66.88;99570.91;4071482;29;20209;-66
2022/04/29 04:34:49;;;;;;;3.30;2.97;;;;;;;7.63;66.63;99571.75;4072136;29;20640;-64
2022/04/29 04:36:25;;;;;;;2.15;2.05;;;;;;;7.63;66.45;99574.47;4078093;29;20234;-64
2022/04/29 04:38:27;;;;;;;3.25;3.00;;;;;;;7.60;66.70;99578.47;4074631;29;20623;-64
2022/04/29 04:40:29;;;;;;;5.10;2.90;;;;;;;7.61;66.96;99579.31;4074978;29;20314;-64
2022/04/29 04:42:30;;;;;;;3.42;3.05;;;;;;;7.60;66.86;99574.88;4071389;29;20208;-64
2022/04/29 04:44:32;;;;;;;3.10;2.80;;;;;;;7.61;66.60;99576.59;4071075;29;20645;-64
2022/04/29 04:46:33;;;;;;;2.25;2.10;;;;;;;7.67;66.64;99575.72;4074707;29;20212;-64
2022/04/29 04:48:35;;;;;;;2.88;2.78;;;;;;;7.72;67.08;99581.41;4074473;29;20208;-64
2022/04/29 04:50:36;;;;;;;2.70;2.50;;;;;;;7.72;66.67;99578.69;4074370;29;20204;-64
2022/04/29 04:52:42;;;;;;;2.53;2.40;;;;;;;7.74;66.86;99582.03;4071333;29;20587;-64
2022/04/29 04:54:44;;;;;;;3.40;3.10;;;;;;;7.74;66.97;99579.31;4074887;29;20243;-65
2022/04/29 04:56:45;;;;;;;2.67;2.47;;;;;;;7.78;67.24;99586.03;4070911;29;20216;-65
2022/04/29 04:58:47;;;;;;;2.80;2.60;;;;;;;7.80;66.76;99578.50;4068667;29;20353;-64
2022/04/29 05:00:50;;;;;;;3.08;2.50;;;;;;;7.80;67.22;99578.50;4069108;29;20320;-65
2022/04/29 05:02:51;;;;;;;3.08;2.88;;;;;;;7.81;66.94;99580.19;4069204;29;20200;-65
2022/04/29 05:04:57;;;;;;;3.00;2.80;;;;;;;7.84;66.40;99579.78;4068592;29;20369;-63
2022/04/29 05:06:59;;;;;;;3.38;3.08;;;;;;;7.88;66.84;99581.03;4069539;29;21174;-65
2022/04/29 05:09:00;;;;;;;3.58;3.38;;;;;;;7.92;66.30;99583.16;4073807;29;20290;-63
2022/04/29 05:11:02;;;;;;;3.15;2.95;;;;;;;7.96;66.90;99580.84;4070172;29;20588;-65
2022/04/29 05:13:03;;;;;;;3.17;2.95;;;;;;;7.98;66.54;99581.47;4077782;29;20255;-65
2022/04/29 05:15:06;;;;;;;2.90;2.70;;;;;;;8.01;66.82;99581.06;4071888;29;20234;-64
2022/04/29 05:17:07;;;;;;;3.10;2.90;;;;;;;7.99;66.93;99584.00;4068506;29;20645;-64
2022/04/29 05:19:09;;;;;;;3.30;3.10;;;;;;;8.01;66.35;99590.06;4072095;29;20295;-64
2022/04/29 05:21:10;;;;;;;4.97;3.35;;;;;;;8.04;66.57;99586.09;4072042;29;20292;-64
2022/04/29 05:23:12;;;;;;;2.90;2.40;;;;;;;8.03;66.53;99593.41;4071057;29;20200;-64
2022/04/29 05:25:13;;;;;;;3.17;2.97;;;;;;;8.05;66.45;99593.22;4069687;29;20224;-63
2022/04/29 05:27:15;;;;;;;3.33;3.03;;;;;;;8.02;67.30;99590.91;4072698;29;20684;-64
2022/04/29 05:29:17;;;;;;;2.63;2.40;;;;;;;8.04;67.13;99591.53;4069295;29;20667;-64
2022/04/29 05:31:19;;;;;;;4.07;3.00;;;;;;;8.06;66.63;99589.44;4066504;29;20277;-64
2022/04/29 05:33:22;;;;;;;3.97;3.58;;;;;;;8.08;66.54;99596.38;4075357;29;20219;-66
2022/04/29 05:35:23;;;;;;;3.15;2.95;;;;;;;8.13;65.99;99590.28;4060142;29;20255;-66
2022/04/29 05:37:27;;;;;;;3.25;3.05;;;;;;;8.19;66.59;99594.91;4070574;29;20286;-66
2022/04/29 05:44:09;;;;;;;3.10;2.90;;;;;;;8.34;66.25;99590.16;4065712;29;20304;-67
2022/04/29 05:46:11;;;;;;;3.13;2.45;;;;;;;8.42;65.81;99589.94;4067473;29;20231;-66
2022/04/29 05:48:12;;;;;;;2.85;2.35;;;;;;;8.47;65.82;99587.38;4065675;29;20225;-69
2022/04/29 05:50:14;;;;;;;2.50;2.40;;;;;;;8.60;65.63;99587.38;4067923;29;20215;-67
2022/04/29 05:52:15;;;;;;;5.43;2.90;;;;;;;8.67;65.65;99590.94;4070771;29;20577;-67
2022/04/29 05:54:17;;;;;;;2.55;2.35;;;;;;;8.75;65.55;99582.56;4069987;29;20218;-67
2022/04/29 05:56:18;;;;;;;3.63;2.97;;;;;;;8.76;66.21;99593.25;4077713;29;20310;-67
2022/04/29 05:58:20;;;;;;;3.08;2.88;;;;;;;8.87;66.20;99589.03;4071396;29;20217;-66
2022/04/29 06:00:22;;;;;;;3.00;2.78;;;;;;;8.92;67.16;99591.97;4068143;29;20252;-65
2022/04/29 06:02:24;;;;;;;3.22;2.95;;;;;;;9.01;66.81;99585.25;4073875;29;20248;-65
2022/04/29 06:04:26;;;;;;;3.53;3.33;;;;;;;9.08;66.46;99591.50;4074379;29;20209;-65
2022/04/29 06:06:28;;;;;;;3.97;3.65;;;;;;;9.19;67.43;99593.56;4073321;29;20241;-68
2022/04/29 06:08:29;;;;;;;3.30;3.05;;;;;;;9.38;66.92;99582.59;4073219;29;20240;-68
2022/04/29 06:10:31;;;;;;;4.72;4.03;;;;;;;9.63;65.83;99585.41;4070332;28;20284;-67
2022/04/29 06:12:39;;;;;;;4.45;3.65;;;;;;;9.92;65.77;99584.81;4075514;29;20716;-67
2022/04/29 06:14:43;;;;;;;3.58;3.28;;;;;;;10.34;65.11;99587.69;4072547;29;20219;-66
2022/04/29 06:16:46;;;;;;;4.38;3.47;;;;;;;10.70;64.41;99578.78;4072740;29;20216;-67
2022/04/29 06:18:48;;;;;;;5.47;5.07;;;;;;;10.78;63.94;99582.06;4070967;29;20225;-65
2022/04/29 06:20:49;;;;;;;4.10;3.75;;;;;;;11.00;64.63;99584.16;4078761;29;20228;-67
2022/04/29 06:22:51;;;;;;;4.05;3.75;;;;;;;11.00;63.35;99581.41;4074058;29;20212;-67
2022/04/29 06:24:52;;;;;;;2.90;2.70;;;;;;;11.10;62.97;99581.72;4075782;29;20751;-65
2022/04/29 06:27:09;;;;;;;4.32;3.90;;;;;;;11.54;62.30;99586.03;4074214;29;20213;-65
2022/04/29 06:29:11;;;;;;;7.55;3.55;;;;;;;11.73;61.91;99580.34;4071483;29;20240;-65
2022/04/29 06:31:12;;;;;;;4.00;3.67;;;;;;;11.83;62.26;99588.84;4076857;29;20211;-66
2022/04/29 06:33:14;;;;;;;3.45;2.83;;;;;;;11.88;62.25;99586.25;4074899;29;20218;-66
2022/04/29 06:35:19;;;;;;;3.97;3.67;;;;;;;11.94;62.91;99584.47;4071936;29;20358;-65
2022/04/29 06:37:21;;;;;;;4.30;4.00;;;;;;;11.90;62.17;99584.09;4059066;29;20205;-65
2022/04/29 06:39:25;;;;;;;3.30;3.00;;;;;;;12.04;62.52;99580.09;4077201;29;20209;-67
2022/04/29 06:41:27;;;;;;;2.60;2.40;;;;;;;12.22;62.17;99582.78;4074451;29;20232;-65
2022/04/29 06:43:30;;;;;;;3.05;2.85;;;;;;;12.27;61.50;99580.19;4071551;29;20244;-64
2022/04/29 06:45:31;;;;;;;3.58;3.28;;;;;;;12.49;60.83;99580.44;4073430;29;20246;-63
2022/04/29 06:47:34;;;;;;;3.20;2.90;;;;;;;12.35;61.75;99588.06;4070895;29;20265;-65
2022/04/29 06:49:36;;;;;;;3.10;2.90;;;;;;;12.43;61.05;99579.50;4069725;29;20243;-67
2022/04/29 06:51:38;;;;;;;2.72;2.47;;;;;;;12.52;60.50;99580.84;4070270;29;20299;-64
2022/04/29 06:53:40;;;;;;;3.00;2.80;;;;;;;12.52;60.08;99577.25;4074192;29;20293;-63
2022/04/29 06:55:44;;;;;;;3.38;3.08;;;;;;;12.58;59.85;99577.13;4076475;29;20264;-63
2022/04/29 06:57:46;;;;;;;3.33;3.03;;;;;;;12.46;59.98;99584.53;4073038;29;20233;-63
2022/04/29 06:59:49;;;;;;;4.03;3.20;;;;;;;12.56;59.93;99589.44;4071943;29;20263;-63
2022/04/29 07:01:50;;;;;;;3.63;3.33;;;;;;;12.57;60.16;99591.94;4072236;29;20207;-63
2022/04/29 07:03:52;;;;;;;3.47;3.28;;;;;;;12.54;60.20;99586.06;4069690;29;20236;-64
2022/04/29 07:05:54;;;;;;;2.30;1.80;;;;;;;12.55;59.71;99588.59;4073985;29;20736;-63
2022/04/29 07:07:55;;;;;;;4.00;3.08;;;;;;;12.54;60.05;99575.94;4071729;29;20204;-63
2022/04/29 07:09:57;;;;;;;4.07;3.75;;;;;;;12.52;59.72;99572.59;4068786;29;20607;-61
2022/04/29 07:12:00;;;;;;;3.10;2.85;;;;;;;12.56;59.66;99572.97;4070620;29;20271;-57
2022/04/29 07:14:02;;;;;;;3.83;3.53;;;;;;;12.42;59.46;99577.81;4068091;29;20213;-57
2022/04/29 07:16:04;;;;;;;4.35;3.17;;;;;;;12.46;59.80;99578.19;4073561;29;20320;-58
2022/04/29 07:18:06;;;;;;;4.25;3.05;;;;;;;12.51;59.77;99587.38;4072544;29;20213;-57
2022/04/29 07:20:08;;;;;;;2.75;2.55;;;;;;;12.50;59.74;99580.22;4067597;29;20225;-58
2022/04/29 07:22:11;;;;;;;2.75;2.55;;;;;;;12.52;60.04;99577.25;4069865;29;20207;-57
2022/04/29 07:24:13;;;;;;;4.53;4.15;;;;;;;12.53;60.29;99574.28;4072172;29;20209;-57
2022/04/29 07:26:15;;;;;;;3.28;2.95;;;;;;;12.75;60.01;99580.84;4068681;29;20315;-57
2022/04/29 07:28:17;;;;;;;3.50;3.20;;;;;;;12.80;60.29;99574.63;4069072;29;20299;-57
2022/04/29 07:30:18;;;;;;;3.30;3.00;;;;;;;12.96;59.77;99569.28;4069700;29;20205;-59
2022/04/29 07:32:20;;;;;;;7.45;3.05;;;;;;;13.03;59.75;99567.25;4072496;29;20215;-56
2022/04/29 07:41:44;;;;;;;8.60;3.10;;;;;;;13.29;58.71;99572.25;4071454;29;20234;-57
2022/04/29 07:43:44;;;;;;;2.92;2.67;;;;;;;14.01;57.93;99577.06;4073473;29;20240;-57
2022/04/29 07:45:46;;;;;;;5.20;2.97;;;;;;;14.27;57.81;99568.22;4072787;29;20343;-57
2022/04/29 07:47:47;;;;;;;2.90;2.70;;;;;;;14.54;57.17;99569.25;4073093;29;20213;-57
2022/04/29 07:49:49;;;;;;;3.25;2.95;;;;;;;14.72;55.40;99570.91;4072829;29;20216;-57
2022/04/29 07:51:50;;;;;;;2.22;2.03;;;;;;;14.84;56.65;99575.22;4074305;29;20299;-57
2022/04/29 07:53:52;;;;;;;3.08;2.88;;;;;;;15.03;55.42;99573.88;4074116;29;20211;-57
2022/04/29 07:55:54;;;;;;;2.55;2.25;;;;;;;15.15;55.18;99580.13;4070722;29;20279;-56
2022/04/29 07:57:56;;;;;;;2.67;2.47;;;;;;;15.22;54.86;99572.53;4071624;29;20669;-58
2022/04/29 07:59:58;;;;;;;2.97;2.47;;;;;;;15.12;54.42;99577.91;4071047;29;20695;-58
2022/04/29 08:01:59;;;;;;;2.80;2.60;;;;;;;15.14;55.08;99581.22;4072463;29;20309;-58
2022/04/29 08:04:01;;;;;;;4.07;3.60;;;;;;;15.23;55.62;99576.13;4070557;29;20213;-58
2022/04/29 08:06:07;;;;;;;3.05;2.67;;;;;;;15.68;54.79;99573.97;4068327;29;20231;-58
2022/04/29 08:08:08;;;;;;;2.42;2.22;;;;;;;15.58;54.60;99569.19;4069653;29;20677;-58
2022/04/29 08:10:10;;;;;;;2.47;2.28;;;;;;;15.75;54.42;99572.72;4070143;29;20227;-58
2022/04/29 08:12:13;;;;;;;2.22;1.75;;;;;;;15.94;54.23;99573.19;4072567;29;20629;-58
2022/04/29 08:14:15;;;;;;;3.22;2.92;;;;;;;15.86;52.49;99568.13;4070618;29;20213;-58
2022/04/29 08:16:36;;;;;;;6.57;2.90;;;;;;;15.76;54.11;99574.38;4070131;29;20215;-58
2022/04/29 08:18:38;;;;;;;2.95;2.75;;;;;;;15.39;54.94;99572.50;4073116;29;20217;-58
2022/04/29 08:20:40;;;;;;;3.90;2.83;;;;;;;15.48;54.92;99577.31;4071500;29;20227;-58
2022/04/29 08:22:42;;;;;;;2.33;2.13;;;;;;;15.54;55.07;99565.28;4072055;29;20208;-58
2022/04/29 08:24:44;;;;;;;2.13;1.98;;;;;;;15.84;54.50;99573.91;4071619;29;20260;-58
2022/04/29 08:26:46;;;;;;;3.42;2.58;;;;;;;15.94;54.85;99571.28;4073999;29;20657;-58
2022/04/29 08:28:48;;;;;;;1.70;1.60;;;;;;;16.01;54.41;99565.53;4073199;29;20295;-58
2022/04/29 08:30:49;;;;;;;1.85;1.75;;;;;;;16.19;54.06;99568.81;4072375;29;20204;-58
2022/04/29 08:32:54;;;;;;;2.50;2.00;;;;;;;16.41;53.96;99572.38;4074531;29;20339;-58
2022/04/29 08:34:56;;;;;;;2.40;2.20;;;;;;;16.31;53.61;99566.72;4072073;29;20246;-58
2022/04/29 08:36:58;;;;;;;2.97;2.60;;;;;;;16.53;53.90;99561.13;4071090;29;20303;-58
2022/04/29 08:39:00;;;;;;;2.75;2.00;;;;;;;16.42;53.96;99562.97;4070675;29;20306;-58
2022/04/29 08:41:02;;;;;;;2.42;1.52;;;;;;;16.59;53.83;99563.69;4070230;29;20248;-58
2022/04/29 08:43:04;;;;;;;2.08;1.92;;;;;;;16.60;53.95;99559.00;4070123;29;20219;-58
2022/04/29 08:45:12;;;;;;;2.90;2.60;;;;;;;16.61;53.25;99564.25;4069501;29;20323;-58
2022/04/29 08:47:15;;;;;;;2.38;2.17;;;;;;;16.68;53.58;99562.09;4069103;29;20246;-58
2022/04/29 08:49:17;;;;;;;2.33;2.13;;;;;;;16.83;53.41;99556.69;4071080;29;20699;-58
2022/04/29 08:51:19;;;;;;;2.00;1.80;;;;;;;17.04;53.20;99558.50;4069368;29;20298;-58
2022/04/29 08:53:21;;;;;;;1.77;1.27;;;;;;;17.15;53.10;99557.47;4072075;29;20251;-58
2022/04/29 09:00:05;;;;;;;3.22;2.28;;;;;;;17.32;52.96;99552.63;4070848;29;20497;-58
2022/04/29 09:02:09;;;;;;;2.80;2.60;;;;;;;17.41;52.19;99556.56;4069723;29;20598;-58
2022/04/29 09:04:11;;;;;;;5.80;2.20;;;;;;;17.48;52.40;99551.59;4069892;29;20598;-58
2022/04/29 09:06:17;;;;;;;2.15;1.92;;;;;;;17.51;52.06;99551.91;4069214;29;20712;-58
2022/04/29 09:08:22;;;;;;;3.38;1.77;;;;;;;17.45;52.00;99546.63;4068914;29;20219;-60
2022/04/29 09:10:26;;;;;;;2.50;2.30;;;;;;;17.40;52.08;99544.66;4069134;29;20218;-59
2022/04/29 09:12:27;;;;;;;2.20;1.60;;;;;;;17.55;51.95;99546.66;4068762;29;20703;-62
2022/04/29 09:14:29;;;;;;;1.88;1.75;;;;;;;17.63;52.08;99540.59;4068386;29;20224;-61
2022/04/29 09:16:37;;;;;;;2.03;1.75;;;;;;;17.86;51.77;99546.50;4068468;29;20390;-60
2022/04/29 09:18:42;;;;;;;3.25;1.92;;;;;;;17.88;51.67;99546.25;4057202;29;20237;-60
2022/04/29 09:20:43;;;;;;;1.73;1.63;;;;;;;17.59;51.67;99537.53;4068344;29;20264;-60
2022/04/29 09:22:47;;;;;;;1.80;1.50;;;;;;;17.76;51.71;99542.88;4066680;29;20247;-61
2022/04/29 09:25:00;;;;;;;5.00;1.80;;;;;;;17.72;51.34;99542.56;4069395;29;20275;-60
2022/04/29 09:27:04;;;;;;;5.47;2.92;;;;;;;17.91;52.17;99541.00;4070768;29;20238;-62
2022/04/29 09:29:16;;;;;;;2.17;2.00;;;;;;;18.34;51.81;99545.28;4070070;29;20243;-61
2022/04/29 09:31:18;;;;;;;2.10;1.90;;;;;;;18.40;50.25;99535.88;4071488;29;20720;-60
2022/04/29 09:33:40;;;;;;;2.42;1.73;;;;;;;18.35;49.74;99536.69;4070090;29;22221;-59
2022/04/29 09:35:42;;;;;;;2.33;2.15;;;;;;;18.43;49.05;99538.91;4069380;29;20633;-60
2022/04/29 09:39:26;;;;;;;2.10;1.88;;;;;;;18.74;48.97;99529.50;4069749;29;20247;-59
2022/04/29 09:40:11;;;;;;;1.98;1.77;;;;;;;19.25;48.74;99522.78;4069301;29;20247;-60
2022/04/29 09:42:12;;;;;;;1.85;1.75;;;;;;;19.47;48.03;99528.00;4070974;29;20328;-61
2022/04/29 09:44:31;;;;;;;3.25;1.52;;;;;;;19.44;47.56;99523.03;4067651;29;20208;-62
2022/04/29 09:46:37;;;;;;;5.20;2.00;;;;;;;20.00;47.97;99518.88;4074307;29;20681;-60
2022/04/29 09:49:09;;;;;;;1.63;1.52;;;;;;;19.56;47.63;99523.50;4073612;29;20208;-61
2022/04/29 09:51:10;;;;;;;1.55;1.45;;;;;;;20.04;47.30;99517.19;4071496;29;21136;-61
2022/04/29 09:53:23;;;;;;;2.55;2.03;;;;;;;20.32;47.15;99513.69;4069604;29;20215;-60
2022/04/29 09:55:25;;;;;;;1.00;0.90;;;;;;;20.63;46.50;99506.75;4071143;29;21298;-62
2022/04/29 09:57:27;;;;;;;2.05;1.83;;;;;;;20.64;45.06;99511.22;4070932;29;20227;-62
2022/04/29 09:59:37;;;;;;;2.92;2.63;;;;;;;20.57;45.21;99510.72;4069754;29;20307;-62
2022/04/29 10:01:41;;;;;;;1.75;1.50;;;;;;;20.37;43.78;99508.09;4072618;29;20277;-62